sensor_id;sensor_type;location;lat;lon;timestamp;temperature;humidity
25668;DHT22;18003;-33.830;151.202;2023-10-09T00:01:07;18.30;96.80
25668;DHT22;18003;-33.830;151.202;2023-10-09T00:03:39;18.30;96.70
25668;DHT22;18003;-33.830;151.202;2023-10-09T00:06:10;18.30;96.40
25668;DHT22;18003;-33.830;151.202;2023-10-09T00:08:44;18.30;96.50
25668;DHT22;18003;-33.830;151.202;2023-10-09T00:11:15;18.40;96.00
25668;DHT22;18003;-33.830;151.202;2023-10-09T00:13:47;18.40;95.70
25668;DHT22;18003;-33.830;151.202;2023-10-09T00:16:22;18.40;96.30
25668;DHT22;18003;-33.830;151.202;2023-10-09T00:19:06;18.40;96.10
25668;DHT22;18003;-33.830;151.202;2023-10-09T00:21:49;18.40;95.50
25668;DHT22;18003;-33.830;151.202;2023-10-09T00:24:20;18.40;95.60
25668;DHT22;18003;-33.830;151.202;2023-10-09T00:26:56;18.40;95.40
25668;DHT22;18003;-33.830;151.202;2023-10-09T00:29:33;18.40;95.20
25668;DHT22;18003;-33.830;151.202;2023-10-09T00:32:05;18.50;94.50
25668;DHT22;18003;-33.830;151.202;2023-10-09T00:34:51;18.60;94.30
25668;DHT22;18003;-33.830;151.202;2023-10-09T00:37:23;18.60;94.10
25668;DHT22;18003;-33.830;151.202;2023-10-09T00:39:53;18.70;96.00
25668;DHT22;18003;-33.830;151.202;2023-10-09T00:42:26;18.70;97.10
25668;DHT22;18003;-33.830;151.202;2023-10-09T00:44:58;18.70;98.00
25668;DHT22;18003;-33.830;151.202;2023-10-09T00:47:32;18.60;98.90
25668;DHT22;18003;-33.830;151.202;2023-10-09T00:52:44;18.70;99.40
25668;DHT22;18003;-33.830;151.202;2023-10-09T00:55:20;18.80;99.40
25668;DHT22;18003;-33.830;151.202;2023-10-09T00:57:52;18.80;99.50
25668;DHT22;18003;-33.830;151.202;2023-10-09T01:00:26;18.80;99.60
25668;DHT22;18003;-33.830;151.202;2023-10-09T01:03:04;18.80;99.70
25668;DHT22;18003;-33.830;151.202;2023-10-09T01:05:48;18.80;99.50
25668;DHT22;18003;-33.830;151.202;2023-10-09T01:08:30;18.80;99.40
25668;DHT22;18003;-33.830;151.202;2023-10-09T01:11:14;18.90;99.60
25668;DHT22;18003;-33.830;151.202;2023-10-09T01:13:48;18.80;99.70
25668;DHT22;18003;-33.830;151.202;2023-10-09T01:16:25;18.90;99.60
25668;DHT22;18003;-33.830;151.202;2023-10-09T01:18:56;18.90;99.60
25668;DHT22;18003;-33.830;151.202;2023-10-09T01:21:30;18.80;99.40
25668;DHT22;18003;-33.830;151.202;2023-10-09T01:24:05;18.90;99.40
25668;DHT22;18003;-33.830;151.202;2023-10-09T01:26:40;18.90;99.70
25668;DHT22;18003;-33.830;151.202;2023-10-09T01:29:15;18.90;99.90
25668;DHT22;18003;-33.830;151.202;2023-10-09T01:31:53;19.00;99.90
25668;DHT22;18003;-33.830;151.202;2023-10-09T01:34:28;18.90;99.90
25668;DHT22;18003;-33.830;151.202;2023-10-09T01:37:03;19.00;99.90
25668;DHT22;18003;-33.830;151.202;2023-10-09T01:39:34;19.00;99.90
25668;DHT22;18003;-33.830;151.202;2023-10-09T01:42:05;19.00;99.90
25668;DHT22;18003;-33.830;151.202;2023-10-09T01:44:35;19.00;99.90
25668;DHT22;18003;-33.830;151.202;2023-10-09T01:47:07;19.00;99.90
25668;DHT22;18003;-33.830;151.202;2023-10-09T01:49:37;19.00;99.90
25668;DHT22;18003;-33.830;151.202;2023-10-09T01:52:08;19.00;99.90
25668;DHT22;18003;-33.830;151.202;2023-10-09T01:54:40;19.00;99.90
25668;DHT22;18003;-33.830;151.202;2023-10-09T01:57:10;19.00;99.90
25668;DHT22;18003;-33.830;151.202;2023-10-09T01:59:44;19.00;99.90
25668;DHT22;18003;-33.830;151.202;2023-10-09T02:02:16;19.00;99.90
25668;DHT22;18003;-33.830;151.202;2023-10-09T02:05:02;19.00;99.90
25668;DHT22;18003;-33.830;151.202;2023-10-09T02:07:44;19.00;99.90
25668;DHT22;18003;-33.830;151.202;2023-10-09T02:10:22;19.00;99.90
25668;DHT22;18003;-33.830;151.202;2023-10-09T02:13:04;19.00;99.90
25668;DHT22;18003;-33.830;151.202;2023-10-09T02:15:42;19.00;99.90
25668;DHT22;18003;-33.830;151.202;2023-10-09T02:18:13;18.90;99.90
25668;DHT22;18003;-33.830;151.202;2023-10-09T02:20:47;19.00;99.90
25668;DHT22;18003;-33.830;151.202;2023-10-09T02:23:19;19.00;99.90
25668;DHT22;18003;-33.830;151.202;2023-10-09T02:25:49;19.10;99.90
25668;DHT22;18003;-33.830;151.202;2023-10-09T02:28:21;19.00;99.90
25668;DHT22;18003;-33.830;151.202;2023-10-09T02:30:51;19.00;99.90
25668;DHT22;18003;-33.830;151.202;2023-10-09T02:33:22;19.10;99.90
25668;DHT22;18003;-33.830;151.202;2023-10-09T02:35:59;19.10;99.90
25668;DHT22;18003;-33.830;151.202;2023-10-09T02:38:36;19.10;99.90
25668;DHT22;18003;-33.830;151.202;2023-10-09T02:41:05;19.10;99.90
25668;DHT22;18003;-33.830;151.202;2023-10-09T02:43:36;19.10;99.90
25668;DHT22;18003;-33.830;151.202;2023-10-09T02:49:07;19.10;99.90
25668;DHT22;18003;-33.830;151.202;2023-10-09T02:51:39;19.20;99.90
25668;DHT22;18003;-33.830;151.202;2023-10-09T02:54:14;19.20;99.90
25668;DHT22;18003;-33.830;151.202;2023-10-09T02:56:51;19.20;99.90
25668;DHT22;18003;-33.830;151.202;2023-10-09T02:59:39;19.20;99.90
25668;DHT22;18003;-33.830;151.202;2023-10-09T03:02:12;19.20;99.90
25668;DHT22;18003;-33.830;151.202;2023-10-09T03:04:43;19.20;99.90
25668;DHT22;18003;-33.830;151.202;2023-10-09T03:07:18;19.20;99.90
25668;DHT22;18003;-33.830;151.202;2023-10-09T03:09:50;19.20;99.90
25668;DHT22;18003;-33.830;151.202;2023-10-09T03:12:21;19.20;99.90
25668;DHT22;18003;-33.830;151.202;2023-10-09T03:14:52;19.20;99.90
25668;DHT22;18003;-33.830;151.202;2023-10-09T03:17:24;19.20;99.90
25668;DHT22;18003;-33.830;151.202;2023-10-09T03:19:55;19.20;99.90
25668;DHT22;18003;-33.830;151.202;2023-10-09T03:22:25;19.20;99.90
25668;DHT22;18003;-33.830;151.202;2023-10-09T03:24:55;19.20;99.90
25668;DHT22;18003;-33.830;151.202;2023-10-09T03:27:26;19.20;99.90
25668;DHT22;18003;-33.830;151.202;2023-10-09T03:29:56;19.20;99.90
25668;DHT22;18003;-33.830;151.202;2023-10-09T03:32:27;19.20;99.90
25668;DHT22;18003;-33.830;151.202;2023-10-09T03:35:02;19.20;99.90
25668;DHT22;18003;-33.830;151.202;2023-10-09T03:37:30;19.20;99.90
25668;DHT22;18003;-33.830;151.202;2023-10-09T03:40:03;19.20;99.90
25668;DHT22;18003;-33.830;151.202;2023-10-09T03:42:33;19.20;99.90
25668;DHT22;18003;-33.830;151.202;2023-10-09T03:45:05;19.20;99.90
25668;DHT22;18003;-33.830;151.202;2023-10-09T03:47:40;19.20;99.90
25668;DHT22;18003;-33.830;151.202;2023-10-09T03:50:11;19.20;99.90
25668;DHT22;18003;-33.830;151.202;2023-10-09T03:52:43;19.20;99.90
25668;DHT22;18003;-33.830;151.202;2023-10-09T03:55:13;19.20;99.90
25668;DHT22;18003;-33.830;151.202;2023-10-09T03:57:44;19.20;99.90
25668;DHT22;18003;-33.830;151.202;2023-10-09T04:00:14;19.20;99.90
25668;DHT22;18003;-33.830;151.202;2023-10-09T04:02:46;19.20;99.90
25668;DHT22;18003;-33.830;151.202;2023-10-09T04:05:18;19.20;99.90
25668;DHT22;18003;-33.830;151.202;2023-10-09T04:07:48;19.20;99.90
25668;DHT22;18003;-33.830;151.202;2023-10-09T04:10:19;19.20;99.90
25668;DHT22;18003;-33.830;151.202;2023-10-09T04:12:56;19.20;99.90
25668;DHT22;18003;-33.830;151.202;2023-10-09T04:15:27;19.20;99.90
25668;DHT22;18003;-33.830;151.202;2023-10-09T04:17:58;19.20;99.90
25668;DHT22;18003;-33.830;151.202;2023-10-09T04:20:29;19.20;99.90
25668;DHT22;18003;-33.830;151.202;2023-10-09T04:23:04;19.20;99.90
25668;DHT22;18003;-33.830;151.202;2023-10-09T04:25:34;19.20;99.90
25668;DHT22;18003;-33.830;151.202;2023-10-09T04:28:09;19.20;99.90
25668;DHT22;18003;-33.830;151.202;2023-10-09T04:30:40;19.20;99.90
25668;DHT22;18003;-33.830;151.202;2023-10-09T04:33:15;19.20;99.90
25668;DHT22;18003;-33.830;151.202;2023-10-09T04:36:05;19.20;99.90
25668;DHT22;18003;-33.830;151.202;2023-10-09T04:38:49;19.20;99.90
25668;DHT22;18003;-33.830;151.202;2023-10-09T04:41:23;19.20;99.90
25668;DHT22;18003;-33.830;151.202;2023-10-09T04:44:04;19.20;99.90
25668;DHT22;18003;-33.830;151.202;2023-10-09T04:46:51;19.20;99.90
25668;DHT22;18003;-33.830;151.202;2023-10-09T04:49:41;19.20;99.90
25668;DHT22;18003;-33.830;151.202;2023-10-09T04:52:19;19.20;99.90
25668;DHT22;18003;-33.830;151.202;2023-10-09T04:54:50;19.20;99.90
25668;DHT22;18003;-33.830;151.202;2023-10-09T04:57:40;19.20;99.90
25668;DHT22;18003;-33.830;151.202;2023-10-09T05:00:16;19.20;99.90
25668;DHT22;18003;-33.830;151.202;2023-10-09T05:03:00;19.20;99.90
25668;DHT22;18003;-33.830;151.202;2023-10-09T05:05:34;19.20;99.90
25668;DHT22;18003;-33.830;151.202;2023-10-09T05:08:12;19.20;99.90
25668;DHT22;18003;-33.830;151.202;2023-10-09T05:11:00;19.20;99.90
25668;DHT22;18003;-33.830;151.202;2023-10-09T05:13:35;19.20;99.90
25668;DHT22;18003;-33.830;151.202;2023-10-09T05:16:16;19.20;99.90
25668;DHT22;18003;-33.830;151.202;2023-10-09T05:18:57;19.30;99.90
25668;DHT22;18003;-33.830;151.202;2023-10-09T05:21:33;19.30;99.90
25668;DHT22;18003;-33.830;151.202;2023-10-09T05:24:05;19.20;99.90
25668;DHT22;18003;-33.830;151.202;2023-10-09T05:26:44;19.20;99.90
25668;DHT22;18003;-33.830;151.202;2023-10-09T05:29:16;19.20;99.90
25668;DHT22;18003;-33.830;151.202;2023-10-09T05:31:51;19.30;99.90
25668;DHT22;18003;-33.830;151.202;2023-10-09T05:34:39;19.20;99.90
25668;DHT22;18003;-33.830;151.202;2023-10-09T05:37:30;19.20;99.90
25668;DHT22;18003;-33.830;151.202;2023-10-09T05:40:04;19.20;99.90
25668;DHT22;18003;-33.830;151.202;2023-10-09T05:42:39;19.20;99.90
25668;DHT22;18003;-33.830;151.202;2023-10-09T05:45:16;19.20;99.90
25668;DHT22;18003;-33.830;151.202;2023-10-09T05:47:48;19.20;99.90
25668;DHT22;18003;-33.830;151.202;2023-10-09T05:50:36;19.20;99.90
25668;DHT22;18003;-33.830;151.202;2023-10-09T05:53:23;19.20;99.90
25668;DHT22;18003;-33.830;151.202;2023-10-09T05:56:11;19.20;99.90
25668;DHT22;18003;-33.830;151.202;2023-10-09T05:58:58;19.20;99.90
25668;DHT22;18003;-33.830;151.202;2023-10-09T06:01:42;19.20;99.90
25668;DHT22;18003;-33.830;151.202;2023-10-09T06:04:30;19.20;99.90
25668;DHT22;18003;-33.830;151.202;2023-10-09T06:07:04;19.20;99.90
25668;DHT22;18003;-33.830;151.202;2023-10-09T06:09:35;19.20;99.90
25668;DHT22;18003;-33.830;151.202;2023-10-09T06:12:24;19.20;99.90
25668;DHT22;18003;-33.830;151.202;2023-10-09T06:15:05;19.30;99.90
25668;DHT22;18003;-33.830;151.202;2023-10-09T06:17:37;19.20;99.90
25668;DHT22;18003;-33.830;151.202;2023-10-09T06:20:08;19.20;99.90
25668;DHT22;18003;-33.830;151.202;2023-10-09T06:22:40;19.20;99.90
25668;DHT22;18003;-33.830;151.202;2023-10-09T06:25:26;19.20;99.90
25668;DHT22;18003;-33.830;151.202;2023-10-09T06:27:57;19.20;99.90
25668;DHT22;18003;-33.830;151.202;2023-10-09T06:30:28;19.20;99.90
25668;DHT22;18003;-33.830;151.202;2023-10-09T06:32:58;19.20;99.90
25668;DHT22;18003;-33.830;151.202;2023-10-09T06:35:29;19.20;99.90
25668;DHT22;18003;-33.830;151.202;2023-10-09T06:38:01;19.20;99.90
25668;DHT22;18003;-33.830;151.202;2023-10-09T06:40:33;19.20;99.90
25668;DHT22;18003;-33.830;151.202;2023-10-09T06:43:24;19.20;99.90
25668;DHT22;18003;-33.830;151.202;2023-10-09T06:45:59;19.20;99.90
25668;DHT22;18003;-33.830;151.202;2023-10-09T06:48:45;19.20;99.90
25668;DHT22;18003;-33.830;151.202;2023-10-09T06:51:16;19.20;99.90
25668;DHT22;18003;-33.830;151.202;2023-10-09T06:53:57;19.20;99.90
25668;DHT22;18003;-33.830;151.202;2023-10-09T06:56:29;19.20;99.90
25668;DHT22;18003;-33.830;151.202;2023-10-09T06:59:04;19.20;99.90
25668;DHT22;18003;-33.830;151.202;2023-10-09T07:01:54;19.20;99.90
25668;DHT22;18003;-33.830;151.202;2023-10-09T07:04:41;19.20;99.90
25668;DHT22;18003;-33.830;151.202;2023-10-09T07:07:14;19.20;99.90
25668;DHT22;18003;-33.830;151.202;2023-10-09T07:09:49;19.20;99.90
25668;DHT22;18003;-33.830;151.202;2023-10-09T07:12:37;19.20;99.90
25668;DHT22;18003;-33.830;151.202;2023-10-09T07:15:08;19.20;99.90
25668;DHT22;18003;-33.830;151.202;2023-10-09T07:17:38;19.20;99.90
25668;DHT22;18003;-33.830;151.202;2023-10-09T07:20:10;19.20;99.90
25668;DHT22;18003;-33.830;151.202;2023-10-09T07:22:54;19.20;99.90
25668;DHT22;18003;-33.830;151.202;2023-10-09T07:25:24;19.20;99.90
25668;DHT22;18003;-33.830;151.202;2023-10-09T07:28:11;19.20;99.90
25668;DHT22;18003;-33.830;151.202;2023-10-09T07:30:46;19.20;99.90
25668;DHT22;18003;-33.830;151.202;2023-10-09T07:33:15;19.20;99.90
25668;DHT22;18003;-33.830;151.202;2023-10-09T07:35:46;19.20;99.90
25668;DHT22;18003;-33.830;151.202;2023-10-09T07:38:18;19.20;99.90
25668;DHT22;18003;-33.830;151.202;2023-10-09T07:41:01;19.20;99.90
25668;DHT22;18003;-33.830;151.202;2023-10-09T07:43:37;19.20;99.90
25668;DHT22;18003;-33.830;151.202;2023-10-09T07:46:16;19.20;99.90
25668;DHT22;18003;-33.830;151.202;2023-10-09T07:49:03;19.20;99.90
25668;DHT22;18003;-33.830;151.202;2023-10-09T07:51:41;19.10;99.90
25668;DHT22;18003;-33.830;151.202;2023-10-09T07:54:12;19.20;99.90
25668;DHT22;18003;-33.830;151.202;2023-10-09T07:56:46;19.10;99.90
25668;DHT22;18003;-33.830;151.202;2023-10-09T07:59:18;19.10;99.90
25668;DHT22;18003;-33.830;151.202;2023-10-09T08:01:50;19.10;99.90
25668;DHT22;18003;-33.830;151.202;2023-10-09T08:04:25;19.10;99.90
25668;DHT22;18003;-33.830;151.202;2023-10-09T08:07:13;19.10;99.90
25668;DHT22;18003;-33.830;151.202;2023-10-09T08:09:50;19.10;99.90
25668;DHT22;18003;-33.830;151.202;2023-10-09T08:12:21;19.10;99.90
25668;DHT22;18003;-33.830;151.202;2023-10-09T08:15:09;19.10;99.90
25668;DHT22;18003;-33.830;151.202;2023-10-09T08:17:50;19.10;99.90
25668;DHT22;18003;-33.830;151.202;2023-10-09T08:20:33;19.10;99.90
25668;DHT22;18003;-33.830;151.202;2023-10-09T08:23:07;19.10;99.90
25668;DHT22;18003;-33.830;151.202;2023-10-09T08:25:38;19.10;99.90
25668;DHT22;18003;-33.830;151.202;2023-10-09T08:28:09;19.00;99.90
25668;DHT22;18003;-33.830;151.202;2023-10-09T08:30:53;19.10;99.90
25668;DHT22;18003;-33.830;151.202;2023-10-09T08:33:27;19.30;99.90
25668;DHT22;18003;-33.830;151.202;2023-10-09T08:35:59;19.40;99.90
25668;DHT22;18003;-33.830;151.202;2023-10-09T08:38:33;19.50;99.90
25668;DHT22;18003;-33.830;151.202;2023-10-09T08:41:10;19.60;99.90
25668;DHT22;18003;-33.830;151.202;2023-10-09T08:43:51;19.60;99.90
25668;DHT22;18003;-33.830;151.202;2023-10-09T08:46:27;19.70;99.90
25668;DHT22;18003;-33.830;151.202;2023-10-09T08:48:55;19.70;99.90
25668;DHT22;18003;-33.830;151.202;2023-10-09T08:51:27;19.70;99.90
25668;DHT22;18003;-33.830;151.202;2023-10-09T08:53:59;19.70;99.90
25668;DHT22;18003;-33.830;151.202;2023-10-09T08:56:29;19.70;99.90
25668;DHT22;18003;-33.830;151.202;2023-10-09T08:58:59;19.80;99.90
25668;DHT22;18003;-33.830;151.202;2023-10-09T09:01:31;19.80;99.90
25668;DHT22;18003;-33.830;151.202;2023-10-09T09:04:02;19.80;99.90
25668;DHT22;18003;-33.830;151.202;2023-10-09T09:06:42;19.80;99.90
25668;DHT22;18003;-33.830;151.202;2023-10-09T09:09:12;19.80;99.90
25668;DHT22;18003;-33.830;151.202;2023-10-09T09:11:43;19.70;99.90
25668;DHT22;18003;-33.830;151.202;2023-10-09T09:14:14;19.80;99.90
25668;DHT22;18003;-33.830;151.202;2023-10-09T09:16:48;19.70;99.90
25668;DHT22;18003;-33.830;151.202;2023-10-09T09:19:19;19.70;99.90
25668;DHT22;18003;-33.830;151.202;2023-10-09T09:21:56;19.70;99.90
25668;DHT22;18003;-33.830;151.202;2023-10-09T09:24:27;19.70;99.90
25668;DHT22;18003;-33.830;151.202;2023-10-09T09:27:02;19.60;99.90
25668;DHT22;18003;-33.830;151.202;2023-10-09T09:29:40;19.70;99.90
25668;DHT22;18003;-33.830;151.202;2023-10-09T09:32:13;19.60;99.90
25668;DHT22;18003;-33.830;151.202;2023-10-09T09:34:53;19.60;99.90
25668;DHT22;18003;-33.830;151.202;2023-10-09T09:37:24;19.60;99.90
25668;DHT22;18003;-33.830;151.202;2023-10-09T09:40:06;19.60;99.90
25668;DHT22;18003;-33.830;151.202;2023-10-09T09:42:47;19.60;99.90
25668;DHT22;18003;-33.830;151.202;2023-10-09T09:45:18;19.60;99.90
25668;DHT22;18003;-33.830;151.202;2023-10-09T09:47:48;19.50;99.90
25668;DHT22;18003;-33.830;151.202;2023-10-09T09:50:19;19.60;99.90
25668;DHT22;18003;-33.830;151.202;2023-10-09T09:52:56;19.50;99.90
25668;DHT22;18003;-33.830;151.202;2023-10-09T09:55:33;19.50;99.90
25668;DHT22;18003;-33.830;151.202;2023-10-09T09:58:02;19.50;99.90
25668;DHT22;18003;-33.830;151.202;2023-10-09T10:00:35;19.50;99.90
25668;DHT22;18003;-33.830;151.202;2023-10-09T10:03:17;19.50;99.90
25668;DHT22;18003;-33.830;151.202;2023-10-09T10:05:51;19.50;99.90
25668;DHT22;18003;-33.830;151.202;2023-10-09T10:08:19;19.50;99.90
25668;DHT22;18003;-33.830;151.202;2023-10-09T10:10:49;19.50;99.90
25668;DHT22;18003;-33.830;151.202;2023-10-09T10:16:14;19.50;99.90
25668;DHT22;18003;-33.830;151.202;2023-10-09T10:19:00;19.50;99.90
25668;DHT22;18003;-33.830;151.202;2023-10-09T10:21:37;19.50;99.90
25668;DHT22;18003;-33.830;151.202;2023-10-09T10:29:48;19.40;99.90
25668;DHT22;18003;-33.830;151.202;2023-10-09T10:32:19;19.40;99.90
25668;DHT22;18003;-33.830;151.202;2023-10-09T10:34:52;19.40;99.90
25668;DHT22;18003;-33.830;151.202;2023-10-09T10:37:39;19.40;99.90
25668;DHT22;18003;-33.830;151.202;2023-10-09T10:40:26;19.40;99.90
25668;DHT22;18003;-33.830;151.202;2023-10-09T10:43:16;19.40;99.90
25668;DHT22;18003;-33.830;151.202;2023-10-09T10:46:06;19.30;99.90
25668;DHT22;18003;-33.830;151.202;2023-10-09T10:48:54;19.30;99.90
25668;DHT22;18003;-33.830;151.202;2023-10-09T10:51:42;19.30;99.90
25668;DHT22;18003;-33.830;151.202;2023-10-09T10:54:23;19.20;99.90
25668;DHT22;18003;-33.830;151.202;2023-10-09T10:57:12;19.20;99.90
25668;DHT22;18003;-33.830;151.202;2023-10-09T10:59:42;19.20;99.90
25668;DHT22;18003;-33.830;151.202;2023-10-09T11:02:12;19.20;99.90
25668;DHT22;18003;-33.830;151.202;2023-10-09T11:04:45;19.20;99.90
25668;DHT22;18003;-33.830;151.202;2023-10-09T11:07:16;19.10;99.90
25668;DHT22;18003;-33.830;151.202;2023-10-09T11:09:56;19.20;99.90
25668;DHT22;18003;-33.830;151.202;2023-10-09T11:12:43;19.20;99.90
25668;DHT22;18003;-33.830;151.202;2023-10-09T11:15:33;19.10;99.90
25668;DHT22;18003;-33.830;151.202;2023-10-09T11:18:08;19.10;99.90
25668;DHT22;18003;-33.830;151.202;2023-10-09T11:20:39;19.10;99.90
25668;DHT22;18003;-33.830;151.202;2023-10-09T11:23:09;19.00;99.90
25668;DHT22;18003;-33.830;151.202;2023-10-09T11:25:45;19.00;99.90
25668;DHT22;18003;-33.830;151.202;2023-10-09T11:28:21;19.00;99.90
25668;DHT22;18003;-33.830;151.202;2023-10-09T11:31:11;19.00;99.90
25668;DHT22;18003;-33.830;151.202;2023-10-09T11:33:45;19.00;99.90
25668;DHT22;18003;-33.830;151.202;2023-10-09T11:36:17;18.90;99.90
25668;DHT22;18003;-33.830;151.202;2023-10-09T11:38:48;19.00;99.90
25668;DHT22;18003;-33.830;151.202;2023-10-09T11:41:20;18.90;99.90
25668;DHT22;18003;-33.830;151.202;2023-10-09T11:43:54;18.90;99.90
25668;DHT22;18003;-33.830;151.202;2023-10-09T11:46:25;18.90;99.90
25668;DHT22;18003;-33.830;151.202;2023-10-09T11:49:08;18.90;99.90
25668;DHT22;18003;-33.830;151.202;2023-10-09T11:51:52;18.80;99.90
25668;DHT22;18003;-33.830;151.202;2023-10-09T11:54:36;18.80;99.90
25668;DHT22;18003;-33.830;151.202;2023-10-09T11:57:06;18.80;99.90
25668;DHT22;18003;-33.830;151.202;2023-10-09T11:59:36;18.80;99.90
25668;DHT22;18003;-33.830;151.202;2023-10-09T12:02:10;18.80;99.90
25668;DHT22;18003;-33.830;151.202;2023-10-09T12:04:42;18.70;99.90
25668;DHT22;18003;-33.830;151.202;2023-10-09T12:07:16;18.70;99.90
25668;DHT22;18003;-33.830;151.202;2023-10-09T12:09:47;18.70;99.90
25668;DHT22;18003;-33.830;151.202;2023-10-09T12:12:21;18.70;99.90
25668;DHT22;18003;-33.830;151.202;2023-10-09T12:14:52;18.60;99.90
25668;DHT22;18003;-33.830;151.202;2023-10-09T12:17:22;18.60;99.90
25668;DHT22;18003;-33.830;151.202;2023-10-09T12:19:54;18.60;99.90
25668;DHT22;18003;-33.830;151.202;2023-10-09T12:22:24;18.60;99.90
25668;DHT22;18003;-33.830;151.202;2023-10-09T12:24:55;18.60;99.90
25668;DHT22;18003;-33.830;151.202;2023-10-09T12:27:25;18.50;99.90
25668;DHT22;18003;-33.830;151.202;2023-10-09T12:29:56;18.50;99.90
25668;DHT22;18003;-33.830;151.202;2023-10-09T12:32:26;18.50;99.90
25668;DHT22;18003;-33.830;151.202;2023-10-09T12:34:56;18.50;99.90
25668;DHT22;18003;-33.830;151.202;2023-10-09T12:37:27;18.50;99.90
25668;DHT22;18003;-33.830;151.202;2023-10-09T12:39:58;18.50;99.90
25668;DHT22;18003;-33.830;151.202;2023-10-09T12:42:29;18.40;99.90
25668;DHT22;18003;-33.830;151.202;2023-10-09T12:45:00;18.40;99.90
25668;DHT22;18003;-33.830;151.202;2023-10-09T12:47:32;18.30;99.90
25668;DHT22;18003;-33.830;151.202;2023-10-09T12:50:02;18.30;99.90
25668;DHT22;18003;-33.830;151.202;2023-10-09T12:52:32;18.30;99.90
25668;DHT22;18003;-33.830;151.202;2023-10-09T12:55:03;18.30;99.90
25668;DHT22;18003;-33.830;151.202;2023-10-09T12:57:35;18.30;99.90
25668;DHT22;18003;-33.830;151.202;2023-10-09T13:00:06;18.30;99.90
25668;DHT22;18003;-33.830;151.202;2023-10-09T13:02:37;18.30;99.90
25668;DHT22;18003;-33.830;151.202;2023-10-09T13:05:09;18.30;99.90
25668;DHT22;18003;-33.830;151.202;2023-10-09T13:07:40;18.20;99.90
25668;DHT22;18003;-33.830;151.202;2023-10-09T13:10:11;18.20;99.90
25668;DHT22;18003;-33.830;151.202;2023-10-09T13:12:42;18.20;99.90
25668;DHT22;18003;-33.830;151.202;2023-10-09T13:15:12;18.20;99.90
25668;DHT22;18003;-33.830;151.202;2023-10-09T13:17:42;18.20;99.90
25668;DHT22;18003;-33.830;151.202;2023-10-09T13:20:12;18.10;99.90
25668;DHT22;18003;-33.830;151.202;2023-10-09T13:22:43;18.20;99.90
25668;DHT22;18003;-33.830;151.202;2023-10-09T13:25:17;18.10;99.90
25668;DHT22;18003;-33.830;151.202;2023-10-09T13:27:50;18.10;99.90
25668;DHT22;18003;-33.830;151.202;2023-10-09T13:30:20;18.10;99.90
25668;DHT22;18003;-33.830;151.202;2023-10-09T13:32:53;18.00;99.90
25668;DHT22;18003;-33.830;151.202;2023-10-09T13:35:23;18.10;99.90
25668;DHT22;18003;-33.830;151.202;2023-10-09T13:37:54;18.00;99.90
25668;DHT22;18003;-33.830;151.202;2023-10-09T13:40:25;18.10;99.90
25668;DHT22;18003;-33.830;151.202;2023-10-09T13:42:58;18.00;99.90
25668;DHT22;18003;-33.830;151.202;2023-10-09T13:45:28;18.00;99.90
25668;DHT22;18003;-33.830;151.202;2023-10-09T13:47:59;18.00;99.90
25668;DHT22;18003;-33.830;151.202;2023-10-09T13:50:30;17.90;99.90
25668;DHT22;18003;-33.830;151.202;2023-10-09T13:53:06;17.90;99.90
25668;DHT22;18003;-33.830;151.202;2023-10-09T13:55:40;17.90;99.90
25668;DHT22;18003;-33.830;151.202;2023-10-09T13:58:12;17.90;99.90
25668;DHT22;18003;-33.830;151.202;2023-10-09T14:00:43;17.90;99.90
25668;DHT22;18003;-33.830;151.202;2023-10-09T14:03:14;17.90;99.90
25668;DHT22;18003;-33.830;151.202;2023-10-09T14:05:45;17.90;99.90
25668;DHT22;18003;-33.830;151.202;2023-10-09T14:08:22;17.90;99.90
25668;DHT22;18003;-33.830;151.202;2023-10-09T14:10:53;17.90;99.90
25668;DHT22;18003;-33.830;151.202;2023-10-09T14:13:23;17.90;99.90
25668;DHT22;18003;-33.830;151.202;2023-10-09T14:15:57;17.90;99.90
25668;DHT22;18003;-33.830;151.202;2023-10-09T14:18:28;17.80;99.90
25668;DHT22;18003;-33.830;151.202;2023-10-09T14:21:04;17.80;99.90
25668;DHT22;18003;-33.830;151.202;2023-10-09T14:23:31;17.80;99.90
25668;DHT22;18003;-33.830;151.202;2023-10-09T14:26:02;17.80;99.90
25668;DHT22;18003;-33.830;151.202;2023-10-09T14:28:33;17.80;99.90
25668;DHT22;18003;-33.830;151.202;2023-10-09T14:31:05;17.70;99.90
25668;DHT22;18003;-33.830;151.202;2023-10-09T14:33:36;17.70;99.90
25668;DHT22;18003;-33.830;151.202;2023-10-09T14:36:06;17.70;99.90
25668;DHT22;18003;-33.830;151.202;2023-10-09T14:38:36;17.70;99.90
25668;DHT22;18003;-33.830;151.202;2023-10-09T14:41:07;17.70;99.90
25668;DHT22;18003;-33.830;151.202;2023-10-09T14:43:37;17.70;99.90
25668;DHT22;18003;-33.830;151.202;2023-10-09T14:46:10;17.70;99.90
25668;DHT22;18003;-33.830;151.202;2023-10-09T14:48:37;17.70;99.90
25668;DHT22;18003;-33.830;151.202;2023-10-09T14:51:07;17.60;99.90
25668;DHT22;18003;-33.830;151.202;2023-10-09T14:53:38;17.60;99.90
25668;DHT22;18003;-33.830;151.202;2023-10-09T14:56:08;17.60;99.90
25668;DHT22;18003;-33.830;151.202;2023-10-09T14:58:39;17.60;99.90
25668;DHT22;18003;-33.830;151.202;2023-10-09T15:01:13;17.60;99.90
25668;DHT22;18003;-33.830;151.202;2023-10-09T15:03:41;17.60;99.90
25668;DHT22;18003;-33.830;151.202;2023-10-09T15:06:12;17.60;99.90
25668;DHT22;18003;-33.830;151.202;2023-10-09T15:08:43;17.60;99.90
25668;DHT22;18003;-33.830;151.202;2023-10-09T15:11:14;17.60;99.90
25668;DHT22;18003;-33.830;151.202;2023-10-09T15:13:44;17.60;99.90
25668;DHT22;18003;-33.830;151.202;2023-10-09T15:16:15;17.60;99.90
25668;DHT22;18003;-33.830;151.202;2023-10-09T15:18:45;17.60;99.90
25668;DHT22;18003;-33.830;151.202;2023-10-09T15:21:16;17.60;99.90
25668;DHT22;18003;-33.830;151.202;2023-10-09T15:23:46;17.50;99.90
25668;DHT22;18003;-33.830;151.202;2023-10-09T15:26:17;17.60;99.90
25668;DHT22;18003;-33.830;151.202;2023-10-09T15:28:48;17.50;99.90
25668;DHT22;18003;-33.830;151.202;2023-10-09T15:31:18;17.50;99.90
25668;DHT22;18003;-33.830;151.202;2023-10-09T15:33:50;17.50;99.90
25668;DHT22;18003;-33.830;151.202;2023-10-09T15:36:20;17.50;99.90
25668;DHT22;18003;-33.830;151.202;2023-10-09T15:38:51;17.50;99.90
25668;DHT22;18003;-33.830;151.202;2023-10-09T15:41:21;17.50;99.90
25668;DHT22;18003;-33.830;151.202;2023-10-09T15:43:52;17.50;99.90
25668;DHT22;18003;-33.830;151.202;2023-10-09T15:46:22;17.50;99.90